Time;durP1;ratioP1;P1;durP2;ratioP2;P2;SDS_P1;SDS_P2;PMS_P1;PMS_P2;Temp;Humidity;BMP_temperature;BMP_pressure;BME280_temperature;BME280_humidity;BME280_pressure;Samples;Min_cycle;Max_cycle;Signal;HPM_P1;HPM_P2
2022/11/28 14:53:42;;;;;;;32.17;19.77;;;8.40;99.90;;;;;;5148519;27;20448;-71
2022/11/28 14:56:13;;;;;;;41.40;25.00;;;8.30;99.90;;;;;;5143706;27;20246;-71
2022/11/28 14:58:46;;;;;;;42.33;28.27;;;8.30;99.90;;;;;;5129197;27;20043;-71
2022/11/28 15:01:18;;;;;;;32.23;22.40;;;8.20;99.90;;;;;;5132963;27;20049;-72
2022/11/28 15:03:58;;;;;;;25.30;17.23;;;8.30;99.90;;;;;;5128747;27;20043;-72
2022/11/28 15:06:32;;;;;;;23.93;17.37;;;8.30;99.90;;;;;;5131063;27;20085;-72
2022/11/28 15:09:16;;;;;;;22.43;15.97;;;8.30;99.90;;;;;;5113597;27;20503;-72
2022/11/28 15:11:57;;;;;;;20.50;14.93;;;8.30;99.90;;;;;;5130398;27;20059;-72
2022/11/28 15:14:26;;;;;;;22.23;15.90;;;8.40;99.90;;;;;;5110712;27;20035;-72
2022/11/28 15:16:56;;;;;;;22.23;14.87;;;8.40;99.90;;;;;;5143735;27;20086;-71
2022/11/28 15:19:27;;;;;;;19.90;14.77;;;8.40;99.90;;;;;;5142909;27;20047;-72
2022/11/28 15:21:54;;;;;;;18.07;14.70;;;8.40;99.90;;;;;;5120546;27;20072;-72
2022/11/28 15:24:27;;;;;;;21.00;15.17;;;8.40;99.90;;;;;;5122764;27;20035;-72
2022/11/28 15:26:55;;;;;;;21.10;14.27;;;8.40;99.90;;;;;;5150485;27;20045;-71
2022/11/28 15:29:23;;;;;;;24.23;15.55;;;8.40;99.90;;;;;;5151323;27;20080;-71
2022/11/28 15:31:51;;;;;;;17.48;13.50;;;8.50;99.90;;;;;;5156980;27;20446;-72
2022/11/28 15:34:36;;;;;;;23.33;15.07;;;8.50;99.90;;;;;;5156837;27;20086;-71
2022/11/28 15:37:13;;;;;;;19.42;14.02;;;8.50;99.90;;;;;;5152606;27;20042;-71
2022/11/28 15:39:40;;;;;;;20.33;15.57;;;8.40;99.90;;;;;;5153569;27;20047;-71
2022/11/28 15:42:24;;;;;;;19.27;14.02;;;8.50;99.90;;;;;;5153234;27;20047;-71
2022/11/28 15:44:56;;;;;;;19.60;14.60;;;8.50;99.90;;;;;;5135596;27;20066;-72
2022/11/28 15:47:22;;;;;;;21.55;14.35;;;8.50;99.90;;;;;;5137583;27;20097;-72
2022/11/28 15:50:18;;;;;;;21.10;15.13;;;8.50;99.90;;;;;;5126745;27;20505;-72
2022/11/28 15:52:55;;;;;;;20.90;15.43;;;8.50;99.90;;;;;;5150278;27;20059;-71
2022/11/28 15:55:21;;;;;;;19.33;14.00;;;8.50;99.90;;;;;;5133033;27;20090;-71
2022/11/28 15:57:47;;;;;;;17.40;14.20;;;8.50;99.90;;;;;;5147709;27;20063;-71
2022/11/28 16:00:15;;;;;;;18.65;14.10;;;8.50;99.90;;;;;;5149919;27;20042;-72
2022/11/28 16:02:43;;;;;;;21.08;14.70;;;8.50;99.90;;;;;;5135950;27;20046;-72
2022/11/28 16:05:20;;;;;;;18.05;13.85;;;8.50;99.90;;;;;;5128662;27;20039;-71
2022/11/28 16:07:49;;;;;;;19.20;15.35;;;8.50;99.90;;;;;;5126663;27;20051;-72
2022/11/28 16:10:18;;;;;;;21.80;15.40;;;8.60;99.90;;;;;;5135581;27;20042;-72
2022/11/28 16:12:44;;;;;;;20.65;15.30;;;8.50;99.90;;;;;;5133772;27;20051;-71
2022/11/28 16:15:21;;;;;;;19.75;14.60;;;8.50;99.90;;;;;;5123899;27;20039;-71
2022/11/28 16:17:48;;;;;;;24.85;17.70;;;8.50;99.90;;;;;;5117073;27;20092;-71
2022/11/28 16:20:21;;;;;;;21.95;15.93;;;8.50;99.90;;;;;;5136715;27;20138;-71
2022/11/28 16:22:47;;;;;;;25.30;15.93;;;8.60;99.90;;;;;;5137088;27;20046;-72
2022/11/28 16:25:25;;;;;;;21.30;15.88;;;8.50;99.90;;;;;;5117894;27;20521;-71
2022/11/28 16:27:56;;;;;;;21.83;16.30;;;8.50;99.90;;;;;;5139416;27;20042;-71
2022/11/28 16:30:22;;;;;;;23.57;16.67;;;8.50;99.90;;;;;;5119055;27;20031;-72
2022/11/28 16:32:52;;;;;;;23.98;16.58;;;8.50;99.90;;;;;;5119272;27;20072;-71
2022/11/28 16:35:36;;;;;;;25.05;16.88;;;8.50;99.90;;;;;;5104007;27;20131;-73
2022/11/28 16:38:12;;;;;;;36.60;20.75;;;8.50;99.90;;;;;;5136099;27;20063;-73
2022/11/28 16:40:38;;;;;;;34.55;19.50;;;8.50;99.90;;;;;;5139464;27;20043;-73
2022/11/28 16:43:05;;;;;;;31.52;19.05;;;8.50;99.90;;;;;;5117342;27;20072;-73
2022/11/28 16:45:32;;;;;;;35.08;20.00;;;8.50;99.90;;;;;;5121627;27;20062;-73
2022/11/28 16:48:07;;;;;;;35.42;20.10;;;8.50;99.90;;;;;;5140811;27;20050;-73
2022/11/28 16:50:34;;;;;;;30.95;19.20;;;8.50;99.90;;;;;;5137236;27;20039;-73
2022/11/28 16:53:01;;;;;;;40.88;20.50;;;8.50;99.90;;;;;;5133367;27;20186;-73
2022/11/28 16:55:33;;;;;;;41.00;21.38;;;8.50;99.90;;;;;;5130145;27;20130;-73
2022/11/28 16:58:10;;;;;;;38.42;21.52;;;8.50;99.90;;;;;;5132410;27;20040;-73
2022/11/28 17:00:39;;;;;;;48.50;24.27;;;8.50;99.90;;;;;;5132788;27;20576;-73
2022/11/28 17:03:05;;;;;;;43.85;22.50;;;8.50;99.90;;;;;;5137958;27;20047;-73
2022/11/28 17:05:31;;;;;;;53.65;24.33;;;8.50;99.90;;;;;;5137588;27;20038;-73
2022/11/28 17:07:57;;;;;;;45.40;21.25;;;8.50;99.90;;;;;;5119117;27;20367;-73
2022/11/28 17:10:24;;;;;;;39.28;21.80;;;8.50;99.90;;;;;;5134074;27;20045;-73
2022/11/28 17:12:50;;;;;;;54.97;23.83;;;8.50;99.90;;;;;;5117495;27;20073;-73
2022/11/28 17:15:20;;;;;;;73.03;26.83;;;8.50;99.90;;;;;;5135056;27;20069;-73
2022/11/28 17:17:46;;;;;;;135.35;34.80;;;8.50;99.90;;;;;;5120402;27;20047;-73
2022/11/28 17:20:13;;;;;;;121.65;36.10;;;8.50;99.90;;;;;;5137421;27;20062;-73
2022/11/28 17:22:45;;;;;;;60.40;24.05;;;8.50;99.90;;;;;;5132297;27;20042;-73
2022/11/28 17:25:18;;;;;;;;;;;8.50;99.90;;;;;;5116091;27;20467;-72
2022/11/28 17:27:44;;;;;;;67.00;24.50;;;8.40;99.90;;;;;;5137290;27;19923;-73
2022/11/28 17:30:15;;;;;;;61.97;23.50;;;8.40;99.90;;;;;;5119474;27;20042;-75
2022/11/28 17:32:41;;;;;;;95.63;28.55;;;8.50;99.90;;;;;;5118743;27;20051;-73
2022/11/28 17:35:18;;;;;;;112.55;28.85;;;8.50;99.90;;;;;;5101584;27;20388;-72
2022/11/28 17:37:44;;;;;;;108.05;31.33;;;8.50;99.90;;;;;;5136663;27;20055;-73
2022/11/28 17:42:54;;;;;;;99.40;29.60;;;8.40;99.90;;;;;;5134555;27;20055;-73
2022/11/28 17:45:21;;;;;;;77.30;25.17;;;8.50;99.90;;;;;;5117005;27;20061;-73
2022/11/28 17:47:46;;;;;;;114.60;30.75;;;8.50;99.90;;;;;;5114991;27;20045;-73
2022/11/28 17:50:12;;;;;;;125.95;30.17;;;8.50;99.90;;;;;;5120207;27;20051;-73
2022/11/28 17:52:38;;;;;;;150.30;33.47;;;8.40;99.90;;;;;;5117785;27;20055;-73
2022/11/28 17:55:04;;;;;;;96.88;28.00;;;8.50;99.90;;;;;;5118444;27;20421;-73
2022/11/28 17:57:30;;;;;;;189.55;38.97;;;8.50;99.90;;;;;;5120595;27;20038;-73
2022/11/28 17:59:56;;;;;;;163.00;35.65;;;8.50;99.90;;;;;;5101108;27;20149;-72
2022/11/28 18:02:22;;;;;;;159.63;35.63;;;8.50;99.90;;;;;;5135028;27;20035;-74
2022/11/28 18:04:48;;;;;;;226.30;41.65;;;8.40;99.90;;;;;;5099915;27;20482;-73
2022/11/28 18:07:14;;;;;;;196.65;39.00;;;8.40;99.90;;;;;;5134774;27;20071;-73
2022/11/28 18:09:39;;;;;;;129.35;31.80;;;8.40;99.90;;;;;;5101271;27;20107;-73
2022/11/28 18:12:05;;;;;;;134.55;29.70;;;8.40;99.90;;;;;;5118071;27;20450;-73
2022/11/28 18:14:31;;;;;;;176.13;34.42;;;8.40;99.90;;;;;;5119316;27;20035;-73
2022/11/28 18:16:56;;;;;;;227.75;43.75;;;8.40;99.90;;;;;;5118059;27;20494;-73
2022/11/28 18:19:22;;;;;;;151.93;33.45;;;8.50;99.90;;;;;;5115903;27;20027;-73
2022/11/28 18:21:48;;;;;;;108.10;29.50;;;8.40;99.90;;;;;;5098987;27;20047;-73
2022/11/28 18:24:14;;;;;;;65.25;23.90;;;8.50;99.90;;;;;;5101343;27;20049;-72
2022/11/28 18:26:40;;;;;;;94.10;25.70;;;8.40;99.90;;;;;;5131872;27;20062;-73
2022/11/28 18:29:06;;;;;;;172.63;35.60;;;8.50;99.90;;;;;;5117549;27;20482;-72
2022/11/28 18:31:33;;;;;;;70.72;23.80;;;8.50;99.90;;;;;;5118373;27;20100;-73
2022/11/28 18:34:06;;;;;;;111.22;27.80;;;8.50;99.90;;;;;;5117106;27;20042;-73
2022/11/28 18:36:33;;;;;;;147.90;33.85;;;8.50;99.90;;;;;;5130752;27;20051;-73
2022/11/28 18:39:10;;;;;;;128.38;30.15;;;8.50;99.90;;;;;;5117391;27;20104;-72
2022/11/28 18:41:35;;;;;;;100.15;26.95;;;8.40;99.90;;;;;;5137403;27;20064;-73
2022/11/28 18:44:03;;;;;;;91.60;25.73;;;8.40;99.90;;;;;;5136356;27;20046;-72
2022/11/28 18:46:29;;;;;;;228.13;41.17;;;8.40;99.90;;;;;;5136194;27;20152;-73
2022/11/28 18:48:55;;;;;;;90.18;25.08;;;8.40;99.90;;;;;;5132060;27;20043;-73
2022/11/28 18:51:27;;;;;;;56.28;22.58;;;8.50;99.90;;;;;;5117261;27;20092;-73
2022/11/28 18:53:54;;;;;;;87.85;26.40;;;8.50;99.90;;;;;;5131731;27;20051;-73
2022/11/28 18:56:20;;;;;;;190.27;38.65;;;8.50;99.90;;;;;;5136684;27;20043;-73
2022/11/28 18:58:48;;;;;;;135.90;29.00;;;8.50;99.90;;;;;;5133494;28;20051;-73
2022/11/28 19:01:16;;;;;;;97.88;28.15;;;8.50;99.90;;;;;;5133711;27;20050;-73
2022/11/28 19:03:46;;;;;;;183.57;36.08;;;8.50;99.90;;;;;;5130249;27;20591;-71
2022/11/28 19:06:12;;;;;;;77.65;25.25;;;8.50;99.90;;;;;;5135791;27;20409;-73
2022/11/28 19:08:38;;;;;;;79.63;24.00;;;8.50;99.90;;;;;;5098964;28;20043;-73
2022/11/28 19:11:08;;;;;;;121.68;30.35;;;8.50;99.90;;;;;;5113782;28;20043;-73
2022/11/28 19:13:38;;;;;;;138.98;31.75;;;8.50;99.90;;;;;;5117289;27;20095;-73
2022/11/28 19:16:05;;;;;;;175.80;34.20;;;8.50;99.90;;;;;;5133712;27;20043;-73
2022/11/28 19:18:32;;;;;;;122.22;31.60;;;8.50;99.90;;;;;;5133609;27;20055;-73
2022/11/28 19:20:58;;;;;;;80.93;25.35;;;8.50;99.90;;;;;;5133767;27;20043;-73
2022/11/28 19:23:24;;;;;;;64.68;24.75;;;8.50;99.90;;;;;;5117515;28;20047;-72
2022/11/28 19:25:49;;;;;;;111.70;27.95;;;8.50;99.90;;;;;;5114256;28;20050;-73
2022/11/28 19:28:15;;;;;;;81.28;25.48;;;8.50;99.90;;;;;;5099335;28;20039;-73
2022/11/28 19:30:41;;;;;;;128.20;32.15;;;8.50;99.90;;;;;;5134007;27;20035;-73
2022/11/28 19:33:07;;;;;;;164.98;36.25;;;8.50;99.90;;;;;;5091792;28;20471;-73
2022/11/28 19:35:33;;;;;;;175.43;36.75;;;8.50;99.90;;;;;;5114818;28;20122;-73
2022/11/28 19:37:59;;;;;;;56.90;25.67;;;8.50;99.90;;;;;;5096360;27;20044;-73
2022/11/28 19:40:24;;;;;;;124.90;32.88;;;8.50;99.90;;;;;;5118542;27;20042;-72
2022/11/28 19:42:50;;;;;;;62.25;24.48;;;8.60;99.90;;;;;;5145285;27;20053;-72
2022/11/28 19:45:16;;;;;;;111.88;30.35;;;8.60;99.90;;;;;;5137829;27;20043;-73
2022/11/28 19:47:41;;;;;;;134.10;36.08;;;8.60;99.90;;;;;;5089642;27;20050;-72
2022/11/28 19:50:11;;;;;;;52.42;23.40;;;8.60;99.90;;;;;;5089822;27;20032;-73
2022/11/28 19:52:37;;;;;;;101.00;27.90;;;8.60;99.90;;;;;;5120683;27;20414;-73
2022/11/28 19:55:02;;;;;;;60.10;25.00;;;8.60;99.90;;;;;;5120199;27;20039;-73
2022/11/28 19:57:28;;;;;;;176.48;37.35;;;8.60;99.90;;;;;;5120857;27;20577;-73
2022/11/28 19:59:54;;;;;;;93.75;28.95;;;8.60;99.90;;;;;;5100589;27;20040;-73
2022/11/28 20:02:21;;;;;;;145.68;36.72;;;8.60;99.90;;;;;;5136706;27;20047;-72
2022/11/28 20:04:47;;;;;;;94.63;30.35;;;8.60;99.90;;;;;;5102198;27;20590;-73
2022/11/28 20:07:13;;;;;;;88.05;28.60;;;8.60;99.90;;;;;;5118223;27;20039;-72
2022/11/28 20:09:38;;;;;;;96.90;30.15;;;8.60;99.90;;;;;;5102487;27;21225;-73
2022/11/28 20:12:04;;;;;;;122.90;34.45;;;8.60;99.90;;;;;;5136552;27;20043;-73
2022/11/28 20:14:31;;;;;;;86.40;27.55;;;8.60;99.90;;;;;;5090001;27;20035;-72
2022/11/28 20:17:00;;;;;;;230.40;50.83;;;8.60;99.90;;;;;;5102354;27;20027;-73
2022/11/28 20:19:26;;;;;;;57.65;25.42;;;8.60;99.90;;;;;;5120042;27;20324;-73
2022/11/28 20:21:55;;;;;;;155.73;36.53;;;8.60;99.90;;;;;;5133200;27;20111;-73
2022/11/28 20:24:21;;;;;;;177.77;40.92;;;8.70;99.90;;;;;;5136974;27;20046;-73
2022/11/28 20:26:48;;;;;;;110.75;31.88;;;8.70;99.90;;;;;;5113681;27;20044;-73
2022/11/28 20:29:15;;;;;;;83.95;29.67;;;8.70;99.90;;;;;;5138254;27;20054;-73
2022/11/28 20:31:44;;;;;;;111.10;35.53;;;8.70;99.90;;;;;;5118780;27;20178;-73
2022/11/28 20:34:11;;;;;;;142.75;37.55;;;8.70;99.90;;;;;;5119693;27;20039;-73
2022/11/28 20:36:36;;;;;;;56.35;26.02;;;8.70;99.90;;;;;;5147732;27;20031;-73
2022/11/28 20:39:03;;;;;;;59.00;26.85;;;8.70;99.90;;;;;;5107901;27;20039;-73
2022/11/28 20:41:29;;;;;;;104.97;35.70;;;8.70;99.90;;;;;;5124530;27;20103;-73
2022/11/28 20:43:55;;;;;;;54.60;26.15;;;8.70;99.90;;;;;;5127170;27;20099;-73
2022/11/28 20:46:30;;;;;;;98.13;31.58;;;8.70;99.90;;;;;;5129365;27;20037;-73
2022/11/28 20:48:58;;;;;;;136.55;36.22;;;8.70;99.90;;;;;;5117679;27;20039;-72
2022/11/28 20:51:26;;;;;;;72.03;29.17;;;8.70;99.90;;;;;;5118523;27;20442;-72
2022/11/28 20:53:53;;;;;;;96.90;30.80;;;8.80;99.90;;;;;;5136899;27;20074;-72
2022/11/28 20:56:22;;;;;;;129.55;37.05;;;8.80;99.90;;;;;;5099900;27;20500;-72
2022/11/28 20:58:48;;;;;;;191.45;41.17;;;8.80;99.90;;;;;;5137250;27;20569;-72
2022/11/28 21:01:16;;;;;;;240.00;51.30;;;8.80;99.90;;;;;;5114283;27;20047;-72
2022/11/28 21:03:42;;;;;;;101.13;32.53;;;8.80;99.90;;;;;;5131976;27;20043;-72
2022/11/28 21:06:08;;;;;;;107.13;33.92;;;8.80;99.90;;;;;;5139433;27;20444;-72
2022/11/28 21:08:34;;;;;;;75.95;29.80;;;8.80;99.90;;;;;;5132627;27;20048;-73
2022/11/28 21:11:09;;;;;;;87.45;31.75;;;8.80;99.90;;;;;;5137047;27;20043;-73
2022/11/28 21:13:35;;;;;;;76.35;28.95;;;8.80;99.90;;;;;;5133025;27;20051;-73
2022/11/28 21:16:19;;;;;;;87.15;30.40;;;8.80;99.90;;;;;;5100542;27;20031;-73
2022/11/28 21:18:45;;;;;;;92.43;32.55;;;8.90;99.90;;;;;;5136089;27;20057;-73
2022/11/28 21:21:25;;;;;;;111.63;34.30;;;8.80;99.90;;;;;;5136025;27;20047;-73
2022/11/28 21:23:55;;;;;;;77.28;28.65;;;8.90;99.90;;;;;;5115957;27;20066;-73
2022/11/28 21:26:22;;;;;;;93.03;30.73;;;8.90;99.90;;;;;;5116239;27;21470;-73
2022/11/28 21:28:50;;;;;;;92.88;33.15;;;8.80;99.90;;;;;;5113645;27;20051;-72
2022/11/28 21:31:21;;;;;;;117.97;33.00;;;8.90;99.90;;;;;;5120687;27;20053;-73
2022/11/28 21:33:52;;;;;;;100.78;33.20;;;8.90;99.90;;;;;;5133961;27;20123;-74
2022/11/28 21:36:18;;;;;;;113.22;32.85;;;8.90;99.90;;;;;;5117649;27;20596;-72
2022/11/28 21:38:48;;;;;;;88.95;29.73;;;8.90;99.90;;;;;;5115916;27;20078;-72
2022/11/28 21:41:14;;;;;;;88.75;29.00;;;8.90;99.90;;;;;;5108460;27;20047;-73
2022/11/28 21:43:39;;;;;;;98.47;31.95;;;8.90;99.90;;;;;;5098544;27;20308;-73
2022/11/28 21:46:06;;;;;;;95.28;30.60;;;8.90;99.90;;;;;;5110503;27;20101;-73
2022/11/28 21:48:33;;;;;;;96.00;29.25;;;8.90;99.90;;;;;;5099959;27;20042;-72
2022/11/28 21:51:00;;;;;;;97.57;29.35;;;9.00;99.90;;;;;;5135223;27;20047;-72
2022/11/28 21:53:26;;;;;;;93.53;30.85;;;9.00;99.90;;;;;;5101857;27;20107;-72
2022/11/28 21:55:56;;;;;;;91.32;28.83;;;8.90;99.90;;;;;;5108144;27;20081;-72
2022/11/28 21:58:22;;;;;;;107.22;30.23;;;9.00;99.90;;;;;;5110494;27;20112;-72
2022/11/28 22:00:59;;;;;;;102.90;30.17;;;9.00;99.90;;;;;;5114545;27;20046;-72
2022/11/28 22:03:25;;;;;;;113.25;29.83;;;9.00;99.90;;;;;;5098244;27;20048;-72
2022/11/28 22:05:51;;;;;;;100.90;30.52;;;9.00;99.90;;;;;;5126031;27;20039;-72
2022/11/28 22:08:19;;;;;;;92.15;29.63;;;8.90;99.90;;;;;;5130689;27;20027;-72
2022/11/28 22:10:45;;;;;;;94.93;29.35;;;9.00;99.90;;;;;;5135473;27;20027;-72
2022/11/28 22:13:10;;;;;;;85.32;28.65;;;8.90;99.90;;;;;;5089299;27;20150;-73
2022/11/28 22:15:41;;;;;;;90.25;28.25;;;8.90;99.90;;;;;;5134566;27;20043;-72
2022/11/28 22:18:08;;;;;;;124.20;32.37;;;8.90;99.90;;;;;;5113675;27;20617;-71
2022/11/28 22:20:34;;;;;;;110.70;29.90;;;8.90;99.90;;;;;;5115708;27;21568;-72
2022/11/28 22:22:59;;;;;;;91.40;27.60;;;8.90;99.90;;;;;;5118394;27;20043;-72
2022/11/28 22:25:25;;;;;;;105.03;29.67;;;8.90;99.90;;;;;;5112775;27;20096;-71
2022/11/28 22:27:51;;;;;;;97.25;30.27;;;8.90;99.90;;;;;;5097965;27;20054;-71
2022/11/28 22:30:16;;;;;;;104.68;29.13;;;8.90;99.90;;;;;;5108394;28;20057;-71
2022/11/28 22:32:42;;;;;;;104.05;30.20;;;8.90;99.90;;;;;;5127530;27;20061;-72
2022/11/28 22:35:08;;;;;;;95.35;29.75;;;8.90;99.90;;;;;;5120016;27;20107;-72
2022/11/28 22:37:35;;;;;;;85.05;26.13;;;8.90;99.90;;;;;;5131879;27;20559;-72
2022/11/28 22:40:01;;;;;;;90.22;27.00;;;8.90;99.90;;;;;;5094793;27;20035;-72
2022/11/28 22:42:27;;;;;;;95.28;27.15;;;8.90;99.90;;;;;;5092734;28;20039;-72
2022/11/28 22:44:53;;;;;;;87.63;25.80;;;8.90;99.90;;;;;;5103990;27;20055;-72
2022/11/28 22:47:18;;;;;;;91.18;26.75;;;8.90;99.90;;;;;;5080690;27;20039;-72
2022/11/28 22:49:44;;;;;;;94.20;26.92;;;8.90;99.90;;;;;;5068285;28;20185;-72
2022/11/28 22:52:10;;;;;;;104.43;28.27;;;8.90;99.90;;;;;;5088703;27;20047;-72
2022/11/28 22:54:35;;;;;;;88.22;27.15;;;8.90;99.90;;;;;;5105227;28;20043;-72
2022/11/28 22:57:01;;;;;;;103.10;28.88;;;8.90;99.90;;;;;;5136882;27;20549;-73
2022/11/28 22:59:28;;;;;;;99.47;28.48;;;8.90;99.90;;;;;;5127640;28;20039;-72
2022/11/28 23:01:53;;;;;;;109.80;31.88;;;8.90;99.90;;;;;;5108533;28;20047;-73
2022/11/28 23:04:20;;;;;;;110.13;30.80;;;8.90;99.90;;;;;;5098631;27;20072;-73
2022/11/28 23:06:45;;;;;;;100.90;28.27;;;8.90;99.90;;;;;;5124014;28;20051;-73
2022/11/28 23:09:13;;;;;;;87.68;28.45;;;8.90;99.90;;;;;;5108004;28;20024;-72
2022/11/28 23:11:39;;;;;;;96.93;27.17;;;8.90;99.90;;;;;;5100291;28;20043;-72
2022/11/28 23:14:05;;;;;;;95.03;26.70;;;8.90;99.90;;;;;;5115183;27;20109;-72
2022/11/28 23:16:37;;;;;;;101.00;28.33;;;8.90;99.90;;;;;;5128277;27;20542;-72
2022/11/28 23:19:06;;;;;;;84.07;26.63;;;8.90;99.90;;;;;;5134766;27;20055;-72
2022/11/28 23:21:34;;;;;;;107.80;29.83;;;8.90;99.90;;;;;;5117321;27;20046;-73
2022/11/28 23:24:00;;;;;;;102.53;28.42;;;8.90;99.90;;;;;;5116946;27;20050;-72
2022/11/28 23:26:28;;;;;;;94.22;26.30;;;8.90;99.90;;;;;;5131878;27;20051;-72
2022/11/28 23:28:54;;;;;;;116.05;29.17;;;8.90;99.90;;;;;;5104959;27;20047;-73
2022/11/28 23:31:25;;;;;;;134.82;29.20;;;8.90;99.90;;;;;;5125910;27;20035;-72
2022/11/28 23:33:52;;;;;;;119.35;28.65;;;8.90;99.90;;;;;;5110098;27;20039;-72
2022/11/28 23:36:22;;;;;;;144.45;31.20;;;8.90;99.90;;;;;;5122614;27;20530;-72
2022/11/28 23:38:50;;;;;;;102.60;26.55;;;8.90;99.90;;;;;;5125883;27;20046;-72
2022/11/28 23:41:16;;;;;;;105.32;28.00;;;8.90;99.90;;;;;;5126669;27;20049;-72
2022/11/28 23:43:42;;;;;;;110.25;29.67;;;8.90;99.90;;;;;;5136529;27;20323;-72
2022/11/28 23:46:09;;;;;;;106.47;26.67;;;8.90;99.90;;;;;;5102548;27;20094;-72
2022/11/28 23:48:36;;;;;;;114.30;29.08;;;8.90;99.90;;;;;;5130534;27;20110;-72
2022/11/28 23:51:02;;;;;;;110.03;27.08;;;8.90;99.90;;;;;;5096722;27;20047;-72
2022/11/28 23:53:28;;;;;;;90.57;25.80;;;8.90;99.90;;;;;;5128058;27;20419;-72
2022/11/28 23:55:54;;;;;;;99.82;27.00;;;8.90;99.90;;;;;;5100086;27;20059;-72
2022/11/28 23:58:19;;;;;;;86.13;24.95;;;8.90;99.90;;;;;;5111463;27;20064;-73
